createdAt,value
2018-07-31T00:00:56.956Z,243.17
2018-07-31T00:03:28.123Z,228.52
2018-07-31T00:05:59.350Z,246.07
2018-07-31T00:08:30.592Z,237.00
2018-07-31T00:11:01.795Z,250.53
2018-07-31T00:13:32.770Z,249.42
2018-07-31T00:16:03.963Z,241.63
2018-07-31T00:18:35.215Z,234.92
2018-07-31T00:21:06.536Z,243.27
2018-07-31T00:23:38.720Z,231.40
2018-07-31T00:26:09.731Z,244.77
2018-07-31T00:28:41.089Z,244.13
2018-07-31T00:31:12.539Z,240.68
2018-07-31T00:33:43.668Z,244.55
2018-07-31T00:36:14.946Z,252.28
2018-07-31T00:38:45.969Z,258.00
2018-07-31T00:41:16.956Z,258.17
2018-07-31T00:43:48.391Z,265.10
2018-07-31T00:46:19.604Z,258.65
2018-07-31T00:48:50.725Z,267.50
2018-07-31T00:51:21.847Z,260.80
2018-07-31T00:53:52.999Z,252.22
2018-07-31T00:56:24.021Z,252.60
2018-07-31T00:58:55.000Z,256.17
2018-07-31T01:01:26.149Z,252.13
2018-07-31T01:03:57.229Z,264.60
2018-07-31T01:06:33.404Z,249.65
2018-07-31T01:09:04.701Z,250.82
2018-07-31T01:11:35.731Z,251.92
2018-07-31T01:14:07.789Z,252.03
2018-07-31T01:16:40.646Z,245.70
2018-07-31T01:19:12.342Z,244.13
2018-07-31T01:21:43.535Z,250.47
2018-07-31T01:24:14.833Z,232.95
2018-07-31T01:26:46.115Z,234.25
2018-07-31T01:29:17.224Z,241.48
2018-07-31T01:31:48.244Z,250.50
2018-07-31T01:34:19.771Z,250.25
2018-07-31T01:36:50.853Z,253.50
2018-07-31T01:39:24.539Z,239.93
2018-07-31T01:41:55.646Z,253.83
2018-07-31T01:44:26.707Z,249.55
2018-07-31T01:46:58.005Z,252.30
2018-07-31T01:49:29.119Z,238.92
2018-07-31T01:52:00.280Z,263.37
2018-07-31T01:54:31.878Z,261.55
2018-07-31T01:57:03.124Z,253.52
2018-07-31T01:59:34.289Z,265.05
2018-07-31T02:02:05.997Z,252.65
2018-07-31T02:04:37.218Z,232.18
2018-07-31T02:07:08.465Z,240.22
2018-07-31T02:09:39.821Z,233.72
2018-07-31T02:12:11.204Z,242.82
2018-07-31T02:14:42.082Z,244.25
2018-07-31T02:17:13.254Z,247.45
2018-07-31T02:19:44.498Z,242.20
2018-07-31T02:22:15.722Z,247.17
2018-07-31T02:24:46.643Z,247.75
2018-07-31T02:27:17.717Z,236.07
2018-07-31T02:29:54.131Z,243.15
2018-07-31T02:32:25.396Z,233.25
2018-07-31T02:34:56.721Z,238.55
2018-07-31T02:37:28.075Z,246.05
2018-07-31T02:39:59.271Z,233.07
2018-07-31T02:42:30.650Z,227.80
2018-07-31T02:45:02.976Z,241.48
2018-07-31T02:47:33.838Z,243.17
2018-07-31T02:50:04.927Z,245.78
2018-07-31T02:52:35.997Z,238.20
2018-07-31T02:55:07.863Z,246.00
2018-07-31T02:57:40.239Z,235.85
2018-07-31T03:00:12.211Z,240.10
2018-07-31T03:02:43.856Z,239.93
2018-07-31T03:05:14.953Z,241.15
2018-07-31T03:07:46.104Z,233.87
2018-07-31T03:10:17.197Z,245.57
2018-07-31T03:12:48.475Z,245.73
2018-07-31T03:15:19.881Z,245.35
2018-07-31T03:17:51.015Z,245.50
2018-07-31T03:20:22.079Z,238.15
2018-07-31T03:22:53.396Z,238.47
2018-07-31T03:25:24.554Z,233.13
2018-07-31T03:27:55.829Z,248.43
2018-07-31T03:30:28.007Z,234.60
2018-07-31T03:32:59.179Z,246.95
2018-07-31T03:35:30.959Z,247.37
2018-07-31T03:38:02.684Z,234.55
2018-07-31T03:40:34.060Z,251.18
2018-07-31T03:43:06.045Z,234.32
2018-07-31T03:45:37.416Z,235.13
2018-07-31T03:48:09.586Z,233.80
2018-07-31T03:50:40.758Z,228.70
2018-07-31T03:53:12.991Z,234.77
2018-07-31T03:55:44.171Z,228.40
2018-07-31T03:58:15.514Z,235.28
2018-07-31T04:00:46.778Z,234.45
2018-07-31T04:03:17.873Z,237.17
2018-07-31T04:05:49.261Z,237.72
2018-07-31T04:08:20.358Z,243.88
2018-07-31T04:10:51.812Z,232.20
2018-07-31T04:13:22.955Z,231.78
2018-07-31T04:15:54.688Z,228.02
2018-07-31T04:18:25.815Z,227.90
2018-07-31T04:20:57.350Z,227.20
2018-07-31T04:23:28.541Z,223.65
2018-07-31T04:26:00.099Z,240.57
2018-07-31T04:28:31.507Z,240.35
2018-07-31T04:31:02.800Z,231.82
2018-07-31T04:33:34.024Z,245.10
2018-07-31T04:36:05.307Z,234.85
2018-07-31T04:38:36.356Z,244.60
2018-07-31T04:41:07.482Z,227.70
2018-07-31T04:43:38.536Z,233.70
2018-07-31T04:46:09.996Z,234.65
2018-07-31T04:48:41.145Z,230.98
2018-07-31T04:51:12.282Z,237.88
2018-07-31T04:53:43.460Z,246.97
2018-07-31T04:56:15.448Z,235.57
2018-07-31T04:58:47.722Z,235.40
2018-07-31T05:01:18.831Z,232.72
2018-07-31T05:03:49.844Z,244.53
2018-07-31T05:06:20.938Z,248.62
2018-07-31T05:08:52.111Z,243.95
2018-07-31T05:11:23.364Z,236.37
2018-07-31T05:13:54.513Z,235.23
2018-07-31T05:16:25.849Z,259.57
2018-07-31T05:18:57.399Z,253.62
2018-07-31T05:21:28.735Z,253.00
2018-07-31T05:24:00.028Z,261.85
2018-07-31T05:26:31.306Z,241.40
2018-07-31T05:29:02.524Z,238.30
2018-07-31T05:31:33.569Z,238.70
2018-07-31T05:34:05.629Z,252.97
2018-07-31T05:36:36.886Z,257.87
2018-07-31T05:39:10.640Z,257.55
2018-07-31T05:41:43.784Z,244.77
2018-07-31T05:44:14.877Z,249.25
2018-07-31T05:46:48.665Z,242.60
2018-07-31T05:49:20.761Z,255.03
2018-07-31T05:51:51.933Z,261.15
2018-07-31T05:54:23.195Z,264.77
2018-07-31T05:56:54.267Z,257.43
2018-07-31T05:59:25.544Z,268.88
2018-07-31T06:01:56.916Z,290.00
2018-07-31T06:04:29.489Z,267.52
2018-07-31T06:07:00.936Z,273.02
2018-07-31T06:09:32.191Z,254.10
2018-07-31T06:12:04.470Z,259.45
2018-07-31T06:14:35.697Z,255.57
2018-07-31T06:17:06.651Z,254.30
2018-07-31T06:19:37.764Z,263.80
2018-07-31T06:22:08.996Z,264.10
2018-07-31T06:24:40.253Z,272.63
2018-07-31T06:27:11.499Z,268.45
2018-07-31T06:29:42.620Z,281.65
2018-07-31T06:32:13.787Z,305.25
2018-07-31T06:34:44.972Z,295.95
2018-07-31T06:37:16.242Z,277.93
2018-07-31T06:39:47.230Z,279.25
2018-07-31T06:42:18.697Z,299.58
2018-07-31T06:44:49.713Z,285.55
2018-07-31T06:47:20.703Z,290.80
2018-07-31T06:49:51.717Z,301.52
2018-07-31T06:52:28.877Z,305.00
2018-07-31T06:55:02.616Z,288.65
2018-07-31T06:57:36.787Z,275.27
2018-07-31T07:00:08.036Z,277.38
2018-07-31T07:02:39.248Z,268.52
2018-07-31T07:05:10.286Z,277.98
2018-07-31T07:07:41.223Z,282.53
2018-07-31T07:10:14.031Z,296.30
2018-07-31T07:12:46.034Z,289.60
2018-07-31T07:15:17.434Z,279.32
2018-07-31T07:17:48.497Z,299.70
2018-07-31T07:20:19.535Z,271.20
2018-07-31T07:22:50.742Z,299.75
2018-07-31T07:25:23.851Z,291.40
2018-07-31T07:27:54.883Z,274.27
2018-07-31T07:30:30.774Z,317.07
2018-07-31T07:33:03.711Z,296.20
2018-07-31T07:35:35.265Z,296.50
2018-07-31T07:38:07.074Z,305.83
2018-07-31T07:40:38.603Z,317.02
2018-07-31T07:43:14.559Z,309.45
2018-07-31T07:45:45.736Z,314.52
2018-07-31T07:48:16.840Z,296.75
2018-07-31T07:50:48.335Z,301.23
2018-07-31T07:53:19.540Z,318.82
2018-07-31T07:55:50.799Z,286.73
2018-07-31T07:58:22.042Z,300.13
2018-07-31T08:00:58.254Z,315.65
2018-07-31T08:03:29.313Z,312.48
2018-07-31T08:06:00.519Z,318.02
2018-07-31T08:08:32.432Z,303.48
2018-07-31T08:11:03.402Z,311.30
2018-07-31T08:13:34.501Z,320.27
2018-07-31T08:16:05.491Z,311.75
2018-07-31T08:18:36.611Z,335.30
2018-07-31T08:21:08.651Z,331.77
2018-07-31T08:23:39.857Z,306.23
2018-07-31T08:26:10.978Z,351.90
2018-07-31T08:28:42.090Z,338.82
2018-07-31T08:31:13.384Z,313.65
2018-07-31T08:33:44.496Z,315.73
2018-07-31T08:36:15.724Z,346.40
2018-07-31T08:38:46.782Z,354.90
2018-07-31T08:41:18.604Z,351.67
2018-07-31T08:43:49.691Z,347.60
2018-07-31T08:46:21.983Z,351.23
2018-07-31T08:48:54.224Z,330.05
2018-07-31T08:51:25.520Z,362.72
2018-07-31T08:53:56.664Z,337.42
2018-07-31T08:56:27.851Z,337.75
2018-07-31T08:58:59.060Z,379.50
2018-07-31T09:01:30.130Z,371.73
2018-07-31T09:04:01.317Z,357.15
2018-07-31T09:06:32.367Z,370.88
2018-07-31T09:09:03.595Z,355.65
2018-07-31T09:11:34.742Z,343.60
2018-07-31T09:14:07.074Z,331.77
2018-07-31T09:16:38.876Z,332.90
2018-07-31T09:19:09.931Z,344.57
2018-07-31T09:21:41.320Z,335.27
2018-07-31T09:24:12.361Z,349.50
2018-07-31T09:26:43.476Z,345.15
2018-07-31T09:29:14.509Z,334.90
2018-07-31T09:31:45.707Z,339.15
2018-07-31T09:34:18.332Z,358.47
2018-07-31T09:36:49.850Z,382.10
2018-07-31T09:39:21.375Z,363.40
2018-07-31T09:41:52.482Z,370.33
2018-07-31T09:44:23.587Z,373.93
2018-07-31T09:46:54.744Z,384.10
2018-07-31T09:49:25.870Z,370.15
2018-07-31T09:51:57.084Z,369.57
2018-07-31T09:54:28.432Z,421.57
2018-07-31T09:56:59.450Z,381.27
2018-07-31T09:59:30.753Z,401.33
2018-07-31T10:02:01.969Z,395.57
2018-07-31T10:04:33.146Z,355.23
2018-07-31T10:07:04.162Z,370.52
2018-07-31T10:09:35.464Z,360.25
2018-07-31T10:12:06.566Z,312.55
2018-07-31T10:14:37.526Z,316.88
2018-07-31T10:17:08.597Z,327.65
2018-07-31T10:19:39.703Z,355.32
2018-07-31T10:22:10.811Z,354.80
2018-07-31T10:24:42.190Z,351.65
2018-07-31T10:27:13.302Z,351.10
2018-07-31T10:29:44.392Z,346.65
2018-07-31T10:32:15.599Z,336.57
2018-07-31T10:34:46.536Z,377.70
2018-07-31T10:37:17.755Z,391.60
2018-07-31T10:39:48.859Z,403.23
2018-07-31T10:42:20.144Z,387.52
2018-07-31T10:44:51.307Z,376.00
2018-07-31T10:47:22.476Z,330.77
2018-07-31T10:49:53.708Z,400.40
2018-07-31T10:52:28.305Z,396.77
2018-07-31T10:54:59.797Z,408.83
2018-07-31T10:57:31.134Z,389.87
2018-07-31T11:00:06.776Z,373.55
2018-07-31T11:14:42.756Z,428.73
2018-07-31T11:17:14.331Z,393.12
2018-07-31T11:19:50.544Z,390.98
2018-07-31T11:22:21.537Z,382.77
2018-07-31T11:24:53.091Z,424.62
2018-07-31T11:27:24.080Z,449.05
2018-07-31T11:29:55.040Z,416.85
2018-07-31T11:32:28.783Z,400.83
2018-07-31T11:35:04.589Z,425.55
2018-07-31T11:37:47.189Z,412.12
2018-07-31T11:40:20.459Z,400.25
2018-07-31T11:42:51.776Z,432.62
2018-07-31T11:45:22.870Z,393.17
2018-07-31T11:47:54.312Z,358.93
2018-07-31T11:50:25.604Z,406.87
2018-07-31T11:52:57.491Z,369.73
2018-07-31T11:55:28.625Z,346.37
2018-07-31T11:57:59.726Z,380.85
2018-07-31T12:00:30.955Z,397.63
2018-07-31T12:03:03.139Z,391.45
2018-07-31T12:05:34.689Z,393.20
2018-07-31T12:08:06.886Z,415.17
2018-07-31T12:10:39.340Z,439.48
2018-07-31T12:13:11.473Z,429.23
2018-07-31T12:15:42.537Z,420.08
2018-07-31T12:18:13.619Z,412.18
2018-07-31T12:20:44.723Z,420.82
2018-07-31T12:23:16.281Z,386.02
2018-07-31T12:25:47.366Z,403.95
2018-07-31T12:28:18.952Z,390.20
2018-07-31T12:30:49.881Z,402.17
2018-07-31T12:33:21.718Z,398.87
2018-07-31T12:35:53.110Z,445.25
2018-07-31T12:38:25.264Z,453.95
2018-07-31T12:40:56.272Z,442.50
2018-07-31T12:43:27.349Z,434.75
2018-07-31T12:45:59.933Z,446.95
2018-07-31T12:48:31.401Z,441.73
2018-07-31T12:51:02.389Z,473.52
2018-07-31T12:53:33.491Z,412.32
2018-07-31T12:56:05.160Z,461.05
2018-07-31T12:58:36.230Z,462.65
2018-07-31T13:01:07.277Z,443.40
2018-07-31T13:03:38.369Z,474.80
2018-07-31T13:06:09.310Z,455.00
2018-07-31T13:08:43.647Z,497.77
2018-07-31T13:11:15.635Z,485.32
2018-07-31T13:13:47.329Z,450.12
2018-07-31T13:16:18.332Z,431.63
2018-07-31T13:18:49.536Z,435.25
2018-07-31T13:21:20.652Z,431.70
2018-07-31T13:23:52.138Z,428.73
2018-07-31T13:26:23.134Z,422.07
2018-07-31T13:28:54.348Z,440.20
2018-07-31T13:31:25.465Z,444.32
2018-07-31T13:33:56.945Z,439.20
2018-07-31T13:36:28.152Z,423.82
2018-07-31T13:38:59.395Z,416.12
2018-07-31T13:41:30.381Z,454.50
2018-07-31T13:44:01.576Z,451.48
2018-07-31T13:46:32.867Z,455.57
2018-07-31T13:49:04.043Z,466.60
2018-07-31T13:51:35.240Z,452.97
2018-07-31T13:54:06.362Z,449.92
2018-07-31T13:56:37.325Z,464.55
2018-07-31T13:59:08.888Z,450.77
2018-07-31T14:01:40.827Z,477.45
2018-07-31T14:04:13.166Z,457.35
2018-07-31T14:06:44.603Z,425.53
2018-07-31T14:09:17.499Z,436.65
2018-07-31T14:11:48.916Z,482.55
2018-07-31T14:14:20.474Z,457.62
2018-07-31T14:16:52.088Z,454.18
2018-07-31T14:19:23.271Z,472.27
2018-07-31T14:21:54.357Z,524.55
2018-07-31T14:24:25.565Z,466.50
2018-07-31T14:26:56.864Z,449.75
2018-07-31T14:29:28.165Z,478.52
2018-07-31T14:31:59.169Z,443.60
2018-07-31T14:34:30.875Z,454.38
2018-07-31T14:37:02.708Z,444.75
2018-07-31T14:39:33.864Z,443.37
2018-07-31T14:42:06.431Z,473.15
2018-07-31T14:44:37.612Z,457.68
2018-07-31T14:47:08.932Z,448.28
2018-07-31T14:49:40.055Z,480.70
2018-07-31T14:52:11.305Z,497.00
2018-07-31T14:54:42.745Z,493.63
2018-07-31T14:57:14.106Z,484.22
2018-07-31T14:59:45.532Z,525.15
2018-07-31T15:02:16.591Z,461.23
2018-07-31T15:04:47.855Z,499.25
2018-07-31T15:07:19.204Z,489.35
2018-07-31T15:09:50.673Z,461.85
2018-07-31T15:12:22.161Z,452.82
2018-07-31T15:14:53.800Z,486.08
2018-07-31T15:17:24.955Z,487.32
2018-07-31T15:19:56.331Z,497.48
2018-07-31T15:22:27.534Z,428.95
2018-07-31T15:24:58.931Z,428.88
2018-07-31T15:27:30.510Z,450.00
2018-07-31T15:30:01.833Z,440.50
2018-07-31T15:32:32.843Z,467.70
2018-07-31T15:35:04.416Z,487.77
2018-07-31T15:37:35.447Z,448.90
2018-07-31T15:40:07.167Z,507.25
2018-07-31T15:42:38.788Z,491.32
2018-07-31T15:45:11.823Z,476.85
2018-07-31T15:47:43.608Z,462.00
2018-07-31T15:50:15.405Z,510.10
2018-07-31T15:52:46.613Z,471.48
2018-07-31T15:55:20.066Z,516.08
2018-07-31T15:57:51.312Z,510.00
2018-07-31T16:00:25.345Z,463.15
2018-07-31T16:02:56.696Z,466.48
2018-07-31T16:05:29.693Z,445.45
2018-07-31T16:08:02.969Z,480.52
2018-07-31T16:10:34.529Z,456.93
2018-07-31T16:13:05.874Z,484.75
2018-07-31T16:15:38.310Z,484.55
2018-07-31T16:18:11.022Z,442.98
2018-07-31T16:20:42.388Z,453.85
2018-07-31T16:23:13.359Z,448.00
2018-07-31T16:25:44.729Z,447.65
2018-07-31T16:28:16.036Z,448.45
2018-07-31T16:30:47.411Z,448.85
2018-07-31T16:33:18.601Z,424.68
2018-07-31T16:35:50.342Z,454.80
2018-07-31T16:38:21.631Z,461.38
2018-07-31T16:40:52.915Z,462.45
2018-07-31T16:43:23.898Z,424.25
2018-07-31T16:45:55.020Z,419.50
2018-07-31T16:48:26.583Z,458.25
2018-07-31T16:50:58.492Z,426.27
2018-07-31T16:53:29.644Z,434.13
2018-07-31T16:56:01.608Z,438.35
2018-07-31T16:58:36.796Z,465.85
2018-07-31T17:01:08.136Z,408.92
2018-07-31T17:03:39.308Z,460.10
2018-07-31T17:06:11.708Z,437.08
2018-07-31T17:08:43.000Z,415.20
2018-07-31T17:11:14.645Z,433.50
2018-07-31T17:13:45.715Z,425.57
2018-07-31T17:16:19.291Z,419.67
2018-07-31T17:18:50.451Z,413.87
2018-07-31T17:21:21.963Z,426.67
2018-07-31T17:23:53.029Z,391.40
2018-07-31T17:26:24.197Z,415.80
2018-07-31T17:28:55.448Z,439.07
2018-07-31T17:31:26.597Z,399.07
2018-07-31T17:33:57.947Z,438.45
2018-07-31T17:36:29.573Z,428.70
2018-07-31T17:39:00.679Z,446.63
2018-07-31T17:41:31.884Z,446.00
2018-07-31T17:44:03.045Z,432.75
2018-07-31T17:46:34.356Z,427.35
2018-07-31T17:49:06.444Z,444.13
2018-07-31T17:51:37.730Z,468.52
2018-07-31T17:54:09.081Z,478.65
2018-07-31T17:56:40.227Z,479.48
2018-07-31T17:59:11.504Z,442.53
2018-07-31T18:01:42.909Z,414.05
2018-07-31T18:04:14.014Z,409.27
2018-07-31T18:06:45.293Z,418.37
2018-07-31T18:09:16.387Z,423.07
2018-07-31T18:11:47.632Z,396.07
2018-07-31T18:14:19.197Z,442.20
2018-07-31T18:16:50.344Z,459.35
2018-07-31T18:19:21.361Z,409.35
2018-07-31T18:21:53.295Z,420.88
2018-07-31T18:24:26.748Z,457.58
2018-07-31T18:27:02.083Z,412.12
2018-07-31T18:29:34.673Z,399.83
2018-07-31T18:32:06.876Z,399.05
2018-07-31T18:34:37.882Z,430.37
2018-07-31T18:37:09.198Z,392.52
2018-07-31T18:39:40.170Z,421.15
2018-07-31T18:42:11.475Z,417.90
2018-07-31T18:44:42.478Z,414.50
2018-07-31T18:47:13.481Z,428.95
2018-07-31T18:49:44.445Z,408.75
2018-07-31T18:52:15.607Z,426.43
2018-07-31T18:54:46.735Z,423.37
2018-07-31T18:57:17.769Z,394.35
2018-07-31T18:59:49.189Z,403.65
2018-07-31T19:02:20.336Z,468.73
2018-07-31T19:04:51.393Z,408.12
2018-07-31T19:07:22.439Z,440.92
2018-07-31T19:09:53.744Z,416.68
2018-07-31T19:12:25.177Z,398.45
2018-07-31T19:14:56.403Z,403.08
2018-07-31T19:17:27.578Z,376.65
2018-07-31T19:19:58.624Z,381.73
2018-07-31T19:22:29.734Z,384.65
2018-07-31T19:25:01.174Z,416.55
2018-07-31T19:27:32.278Z,385.88
2018-07-31T19:30:03.613Z,405.60
2018-07-31T19:32:35.138Z,419.47
2018-07-31T19:35:06.136Z,401.52
2018-07-31T19:37:37.516Z,366.08
2018-07-31T19:40:08.596Z,354.68
2018-07-31T19:42:39.695Z,364.75
2018-07-31T19:45:10.775Z,409.27
2018-07-31T19:47:42.361Z,402.88
2018-07-31T19:50:16.494Z,377.95
2018-07-31T19:52:47.720Z,405.15
2018-07-31T19:55:20.947Z,420.15
2018-07-31T19:57:52.357Z,427.93
2018-07-31T20:00:25.926Z,352.13
2018-07-31T20:02:57.203Z,386.10
2018-07-31T20:05:28.219Z,396.12
2018-07-31T20:07:59.354Z,366.17
2018-07-31T20:10:35.184Z,356.57
2018-07-31T20:13:06.904Z,387.38
2018-07-31T20:15:39.249Z,379.00
2018-07-31T20:18:11.441Z,353.12
2018-07-31T20:20:42.320Z,407.20
2018-07-31T20:23:13.768Z,381.52
2018-07-31T20:25:44.908Z,343.25
2018-07-31T20:28:16.539Z,388.18
2018-07-31T20:30:48.091Z,399.00
2018-07-31T20:33:19.112Z,388.45
2018-07-31T20:35:50.328Z,364.38
2018-07-31T20:38:21.346Z,368.33
2018-07-31T20:40:52.613Z,320.85
2018-07-31T20:43:23.894Z,351.25
2018-07-31T20:45:55.029Z,358.95
2018-07-31T20:48:26.154Z,338.82
2018-07-31T20:50:57.273Z,357.95
2018-07-31T20:53:28.358Z,337.70
2018-07-31T20:55:59.676Z,391.95
2018-07-31T20:58:31.751Z,392.77
2018-07-31T21:01:02.853Z,406.27
2018-07-31T21:03:34.068Z,373.50
2018-07-31T21:06:05.508Z,387.68
2018-07-31T21:08:36.668Z,375.70
2018-07-31T21:11:08.294Z,350.62
2018-07-31T21:13:40.511Z,325.85
2018-07-31T21:16:11.859Z,330.85
2018-07-31T21:18:43.131Z,338.45
2018-07-31T21:21:14.085Z,316.00
2018-07-31T21:23:45.144Z,323.02
2018-07-31T21:26:16.261Z,346.77
2018-07-31T21:28:47.334Z,345.52
2018-07-31T21:31:18.322Z,377.30
2018-07-31T21:33:49.396Z,329.98
2018-07-31T21:36:20.496Z,325.07
2018-07-31T21:38:51.516Z,339.63
2018-07-31T21:41:22.564Z,369.10
2018-07-31T21:43:53.669Z,357.40
2018-07-31T21:46:24.864Z,363.95
2018-07-31T21:48:56.016Z,362.75
2018-07-31T21:51:27.220Z,362.35
2018-07-31T21:53:58.385Z,337.88
2018-07-31T21:56:38.910Z,332.37
2018-07-31T21:59:25.625Z,304.90
2018-07-31T22:01:57.167Z,291.60
2018-07-31T22:04:28.220Z,319.32
2018-07-31T22:06:59.294Z,321.35
2018-07-31T22:09:31.973Z,316.85
2018-07-31T22:12:04.938Z,306.75
2018-07-31T22:14:36.820Z,340.43
2018-07-31T22:17:08.200Z,328.32
2018-07-31T22:19:39.768Z,325.00
2018-07-31T22:22:10.847Z,290.10
2018-07-31T22:24:41.975Z,286.48
2018-07-31T22:27:13.735Z,327.07
2018-07-31T22:29:45.232Z,328.95
2018-07-31T22:32:17.519Z,312.50
2018-07-31T22:34:48.833Z,326.23
2018-07-31T22:37:19.989Z,328.50
2018-07-31T22:39:51.424Z,341.95
2018-07-31T22:42:23.661Z,291.42
2018-07-31T22:44:56.109Z,350.10
2018-07-31T22:47:27.397Z,318.88
2018-07-31T22:49:59.597Z,334.85
2018-07-31T22:52:31.247Z,314.42
2018-07-31T22:55:02.285Z,332.07
2018-07-31T22:57:33.410Z,333.85
2018-07-31T23:00:08.889Z,318.88
2018-07-31T23:02:41.561Z,303.80
2018-07-31T23:05:13.581Z,314.23
2018-07-31T23:07:44.716Z,317.07
2018-07-31T23:10:17.713Z,338.25
2018-07-31T23:12:49.967Z,317.95
2018-07-31T23:15:26.140Z,336.15
2018-07-31T23:17:57.281Z,321.13
2018-07-31T23:20:28.566Z,302.75
2018-07-31T23:22:59.598Z,321.07
2018-07-31T23:25:34.183Z,328.18
2018-07-31T23:28:06.554Z,329.95
2018-07-31T23:30:38.807Z,342.50
2018-07-31T23:33:11.626Z,307.52
2018-07-31T23:35:43.466Z,304.68
2018-07-31T23:38:14.543Z,283.35
2018-07-31T23:40:48.106Z,298.77
2018-07-31T23:43:19.604Z,296.50
2018-07-31T23:45:50.612Z,313.70
2018-07-31T23:48:21.718Z,316.12
2018-07-31T23:50:53.100Z,295.93
2018-07-31T23:53:24.114Z,286.60
2018-07-31T23:55:55.495Z,300.85
2018-07-31T23:58:26.525Z,285.93
